Time;durP1;ratioP1;P1;durP2;ratioP2;P2;SDS_P1;SDS_P2;PMS_P1;PMS_P2;Temp;Humidity;BMP_temperature;BMP_pressure;BME280_temperature;BME280_humidity;BME280_pressure;Samples;Min_cycle;Max_cycle;Signal;HPM_P1;HPM_P2
2023/05/09 00:01:12;;;;;;;17.02;8.93;;;;;;;14.59;100.00;101409.00;5057198;28;20062;-74
2023/05/09 00:03:39;;;;;;;16.38;8.45;;;;;;;14.56;100.00;101403.50;5055383;28;20044;-75
2023/05/09 00:06:06;;;;;;;17.17;8.80;;;;;;;14.51;100.00;101401.19;5061256;28;20067;-73
2023/05/09 00:08:32;;;;;;;16.05;8.88;;;;;;;14.49;100.00;101398.81;5071799;28;20060;-74
2023/05/09 00:11:00;;;;;;;17.77;9.07;;;;;;;14.45;100.00;101395.28;5065028;28;20079;-75
2023/05/09 00:13:27;;;;;;;16.27;9.15;;;;;;;14.41;100.00;101397.34;5066187;28;20526;-74
2023/05/09 00:15:53;;;;;;;19.80;10.35;;;;;;;14.39;100.00;101393.41;5065438;28;20562;-74
2023/05/09 00:18:21;;;;;;;18.25;9.18;;;;;;;14.35;100.00;101389.88;5067478;28;20695;-74
2023/05/09 00:20:48;;;;;;;19.23;10.45;;;;;;;14.29;100.00;101391.56;5057630;28;20044;-74
2023/05/09 00:23:15;;;;;;;17.75;9.80;;;;;;;14.26;100.00;101386.84;5060046;28;20048;-75
2023/05/09 00:25:42;;;;;;;19.45;10.10;;;;;;;14.20;100.00;101382.94;5056931;28;20055;-74
2023/05/09 00:28:08;;;;;;;18.48;9.68;;;;;;;14.18;100.00;101382.59;5061410;28;20049;-75
2023/05/09 00:30:35;;;;;;;20.15;9.23;;;;;;;14.10;100.00;101378.31;5063501;28;20135;-74
2023/05/09 00:33:02;;;;;;;19.63;9.70;;;;;;;14.04;100.00;101380.81;5063946;28;20051;-74
2023/05/09 00:35:30;;;;;;;22.20;10.77;;;;;;;13.99;100.00;101372.13;5066182;28;20045;-75
2023/05/09 00:37:56;;;;;;;19.50;10.52;;;;;;;14.00;100.00;101374.50;5064048;28;20059;-74
2023/05/09 00:40:23;;;;;;;17.75;10.43;;;;;;;13.99;100.00;101360.94;5060757;28;20507;-75
2023/05/09 00:42:50;;;;;;;17.95;10.57;;;;;;;13.93;100.00;101363.44;5076924;28;20131;-75
2023/05/09 00:45:16;;;;;;;21.38;9.43;;;;;;;13.85;100.00;101353.59;5071655;28;20051;-74
2023/05/09 00:47:43;;;;;;;21.42;10.20;;;;;;;13.81;100.00;101349.28;5075443;28;20494;-74
2023/05/09 00:50:10;;;;;;;18.95;10.57;;;;;;;13.79;100.00;101349.72;5052830;28;20144;-75
2023/05/09 00:52:37;;;;;;;18.38;10.55;;;;;;;13.75;100.00;101348.19;5065989;28;20518;-74
2023/05/09 00:55:07;;;;;;;19.98;9.82;;;;;;;13.73;100.00;101343.00;5069764;28;20072;-75
2023/05/09 00:57:33;;;;;;;19.05;10.45;;;;;;;13.71;100.00;101334.25;5077384;28;20051;-74
2023/05/09 01:00:00;;;;;;;19.20;11.60;;;;;;;13.69;100.00;101339.50;5070582;28;20483;-75
2023/05/09 01:02:27;;;;;;;21.95;11.30;;;;;;;13.67;100.00;101339.13;5065135;28;20049;-75
2023/05/09 01:04:53;;;;;;;23.10;11.55;;;;;;;13.66;100.00;101336.75;5069935;28;20125;-75
2023/05/09 01:07:34;;;;;;;17.95;10.38;;;;;;;13.60;100.00;101355.22;5067668;28;20056;-74
2023/05/09 01:10:28;;;;;;;23.02;12.63;;;;;;;13.56;100.00;101338.50;5064425;28;20102;-75
2023/05/09 01:13:08;;;;;;;22.10;12.20;;;;;;;13.62;100.00;101336.00;5063761;28;20058;-75
2023/05/09 01:16:22;;;;;;;21.33;12.05;;;;;;;13.64;100.00;101325.22;5065971;28;20048;-74
2023/05/09 01:18:59;;;;;;;22.30;12.02;;;;;;;13.66;100.00;101326.38;5034157;28;20479;-75
2023/05/09 01:21:29;;;;;;;22.25;12.02;;;;;;;13.68;100.00;101317.56;5034340;28;20053;-75
2023/05/09 01:24:29;;;;;;;21.02;12.07;;;;;;;13.66;100.00;101323.56;5029160;28;20152;-75
2023/05/09 01:27:17;;;;;;;21.45;11.85;;;;;;;13.67;100.00;101316.75;5036431;28;20047;-73
2023/05/09 01:29:47;;;;;;;21.35;12.60;;;;;;;13.67;100.00;101310.41;5040627;28;20133;-74
2023/05/09 01:32:18;;;;;;;21.85;12.88;;;;;;;13.68;100.00;101314.75;5042656;28;20076;-75
2023/05/09 01:34:48;;;;;;;20.90;12.00;;;;;;;13.62;100.00;101305.28;5042658;28;20136;-75
2023/05/09 01:37:18;;;;;;;20.42;12.13;;;;;;;13.60;100.00;101311.28;5039255;28;20052;-75
2023/05/09 01:39:48;;;;;;;20.77;12.45;;;;;;;13.63;100.00;101304.84;5045530;28;20049;-75
2023/05/09 01:42:17;;;;;;;21.10;12.18;;;;;;;13.64;100.00;101300.84;5038307;28;20081;-75
2023/05/09 01:44:45;;;;;;;22.05;12.88;;;;;;;13.65;100.00;101296.84;5032869;28;20140;-74
2023/05/09 01:47:15;;;;;;;23.23;14.45;;;;;;;13.65;100.00;101304.44;5040648;28;20059;-75
2023/05/09 01:49:44;;;;;;;22.90;13.73;;;;;;;13.67;100.00;101299.22;5056607;28;20102;-74
2023/05/09 01:52:13;;;;;;;22.60;13.13;;;;;;;13.70;100.00;101293.56;5070498;28;20052;-74
2023/05/09 01:54:42;;;;;;;22.17;12.50;;;;;;;13.70;100.00;101295.56;5063522;28;20106;-73
2023/05/09 01:57:10;;;;;;;22.90;13.32;;;;;;;13.68;100.00;101296.00;5061287;28;20044;-73
2023/05/09 01:59:42;;;;;;;25.95;15.55;;;;;;;13.58;100.00;101291.38;5067406;28;20052;-74
2023/05/09 02:02:10;;;;;;;26.00;14.60;;;;;;;13.68;100.00;101292.41;5068774;28;21059;-76
2023/05/09 02:04:39;;;;;;;23.40;14.40;;;;;;;13.72;100.00;101284.75;5068650;28;20044;-75
2023/05/09 02:07:06;;;;;;;23.90;13.95;;;;;;;13.74;100.00;101287.94;5066854;28;20068;-75
2023/05/09 02:09:33;;;;;;;25.75;14.40;;;;;;;13.73;100.00;101294.72;5067542;28;20487;-75
2023/05/09 02:12:00;;;;;;;25.58;16.60;;;;;;;13.68;100.00;101281.22;5070364;28;20676;-73
2023/05/09 02:14:27;;;;;;;23.85;13.70;;;;;;;13.76;100.00;101286.28;5069163;28;20055;-75
2023/05/09 02:16:53;;;;;;;24.35;14.82;;;;;;;13.75;100.00;101290.28;5071732;28;20040;-76
2023/05/09 02:19:20;;;;;;;24.55;14.15;;;;;;;13.73;100.00;101295.50;5065946;28;20045;-76
2023/05/09 02:21:49;;;;;;;25.17;14.50;;;;;;;13.70;100.00;101298.34;5063026;28;20048;-75
2023/05/09 02:24:15;;;;;;;26.50;16.10;;;;;;;13.69;100.00;101288.41;5068645;28;20048;-75
2023/05/09 02:26:42;;;;;;;29.63;15.80;;;;;;;13.73;100.00;101295.50;5068247;28;20102;-76
2023/05/09 02:29:09;;;;;;;28.25;17.30;;;;;;;13.72;100.00;101290.34;5068116;28;20068;-75
2023/05/09 02:31:39;;;;;;;26.40;15.13;;;;;;;13.70;100.00;101287.16;5076322;28;20048;-76
2023/05/09 02:34:08;;;;;;;29.27;16.10;;;;;;;13.66;100.00;101286.44;5066471;28;20063;-75
2023/05/09 02:36:35;;;;;;;28.70;16.58;;;;;;;13.61;100.00;101281.34;5060496;28;20049;-75
2023/05/09 02:39:02;;;;;;;27.08;16.02;;;;;;;13.63;100.00;101281.72;5066461;28;20079;-75
2023/05/09 02:41:29;;;;;;;27.50;16.83;;;;;;;13.66;100.00;101284.44;5067862;28;20136;-74
2023/05/09 02:43:55;;;;;;;27.90;15.85;;;;;;;13.67;100.00;101288.03;5067337;28;20110;-74
2023/05/09 02:46:22;;;;;;;28.02;16.42;;;;;;;13.67;100.00;101280.44;5068817;28;20136;-74
2023/05/09 02:48:48;;;;;;;29.55;17.52;;;;;;;13.69;100.00;101280.00;5069604;28;20415;-74
2023/05/09 02:51:15;;;;;;;27.70;16.70;;;;;;;13.67;100.00;101285.25;5084333;28;20552;-76
2023/05/09 02:53:41;;;;;;;28.10;16.42;;;;;;;13.63;100.00;101287.28;5064352;28;20048;-76
2023/05/09 02:56:09;;;;;;;27.38;16.23;;;;;;;13.67;100.00;101279.66;5066862;28;20413;-75
2023/05/09 02:58:36;;;;;;;32.00;17.75;;;;;;;13.72;100.00;101276.38;5070559;28;20121;-73
2023/05/09 03:01:02;;;;;;;32.15;18.75;;;;;;;13.76;100.00;101282.69;5068070;28;20049;-73
2023/05/09 03:03:32;;;;;;;29.80;18.75;;;;;;;13.74;100.00;101283.09;5065674;28;20135;-73
2023/05/09 03:05:59;;;;;;;31.33;17.65;;;;;;;13.72;100.00;101277.16;5067246;28;20135;-75
2023/05/09 03:08:26;;;;;;;28.92;17.98;;;;;;;13.77;100.00;101273.09;5067045;28;20056;-76
2023/05/09 03:10:52;;;;;;;32.17;18.27;;;;;;;13.82;100.00;101269.81;5064492;28;20056;-72
2023/05/09 03:13:19;;;;;;;32.40;18.45;;;;;;;13.81;100.00;101263.41;5071794;28;20052;-74
2023/05/09 03:15:45;;;;;;;31.05;17.98;;;;;;;13.85;100.00;101271.75;5066703;28;20051;-73
2023/05/09 03:18:12;;;;;;;31.15;18.85;;;;;;;13.91;100.00;101264.47;5066492;28;20056;-74
2023/05/09 03:20:38;;;;;;;30.58;18.15;;;;;;;13.93;100.00;101270.41;5065730;28;20342;-73
2023/05/09 03:23:05;;;;;;;29.35;16.83;;;;;;;13.95;100.00;101263.19;5067650;28;20067;-73
2023/05/09 03:25:34;;;;;;;28.50;16.98;;;;;;;13.94;100.00;101263.59;5065920;28;20049;-73
2023/05/09 03:28:00;;;;;;;29.02;17.38;;;;;;;13.88;100.00;101265.31;5059254;28;20491;-73
2023/05/09 03:30:27;;;;;;;29.55;17.08;;;;;;;13.90;100.00;101266.44;5067504;28;20131;-74
2023/05/09 03:32:53;;;;;;;33.47;18.65;;;;;;;13.89;100.00;101258.50;5078425;28;20053;-74
2023/05/09 03:35:20;;;;;;;31.20;17.70;;;;;;;13.91;100.00;101256.06;5071578;28;20509;-74
2023/05/09 03:37:46;;;;;;;31.33;16.85;;;;;;;13.91;100.00;101253.28;5063815;28;20471;-73
2023/05/09 03:40:13;;;;;;;28.45;16.45;;;;;;;13.98;100.00;101251.13;5074279;28;20070;-73
2023/05/09 03:42:39;;;;;;;28.80;16.90;;;;;;;13.98;100.00;101253.91;5062108;28;20056;-74
2023/05/09 03:45:06;;;;;;;31.83;18.27;;;;;;;13.95;100.00;101246.41;5066460;28;20055;-74
2023/05/09 03:47:33;;;;;;;30.15;17.23;;;;;;;14.03;100.00;101259.03;5066775;28;20044;-72
2023/05/09 03:50:00;;;;;;;29.83;18.90;;;;;;;14.04;100.00;101254.22;5065862;28;20060;-73
2023/05/09 03:52:26;;;;;;;29.77;18.17;;;;;;;13.97;100.00;101262.72;5064181;28;20057;-74
2023/05/09 03:54:53;;;;;;;31.45;18.13;;;;;;;14.01;100.00;101250.28;5066654;28;20052;-73
2023/05/09 03:57:19;;;;;;;31.65;18.83;;;;;;;13.97;100.00;101243.97;5065986;28;20044;-74
2023/05/09 03:59:46;;;;;;;32.85;19.52;;;;;;;14.02;100.00;101248.28;5065011;28;20056;-73
2023/05/09 04:02:12;;;;;;;33.13;19.13;;;;;;;14.07;100.00;101245.75;5067406;28;20051;-75
2023/05/09 04:04:39;;;;;;;32.42;19.20;;;;;;;14.10;100.00;101236.53;5064982;28;20078;-75
2023/05/09 04:07:05;;;;;;;29.13;17.42;;;;;;;14.12;100.00;101245.28;5066032;28;20040;-76
2023/05/09 04:09:32;;;;;;;27.10;13.27;;;;;;;14.05;100.00;101247.41;5054076;28;20048;-74
2023/05/09 04:11:58;;;;;;;34.60;18.77;;;;;;;14.10;100.00;101238.53;5066821;28;20048;-75
2023/05/09 04:14:25;;;;;;;31.63;17.55;;;;;;;14.12;100.00;101236.91;5065956;28;20053;-75
2023/05/09 04:16:51;;;;;;;34.00;19.38;;;;;;;14.14;100.00;101240.03;5068609;28;20056;-73
2023/05/09 04:19:18;;;;;;;37.03;18.85;;;;;;;14.11;100.00;101231.72;5078030;28;20047;-74
2023/05/09 04:21:44;;;;;;;34.15;17.10;;;;;;;14.11;100.00;101228.94;5069416;28;20048;-75
2023/05/09 04:24:11;;;;;;;39.97;21.10;;;;;;;14.17;100.00;101230.00;5064508;28;20063;-74
2023/05/09 04:26:38;;;;;;;34.03;19.27;;;;;;;14.10;100.00;101230.94;5061830;28;20130;-74
2023/05/09 04:29:04;;;;;;;34.13;19.00;;;;;;;14.15;100.00;101224.81;5061932;28;20048;-75
2023/05/09 04:31:31;;;;;;;39.00;21.45;;;;;;;14.20;100.00;101227.13;5060672;28;20445;-74
2023/05/09 04:33:58;;;;;;;36.00;20.58;;;;;;;14.22;100.00;101229.50;5074814;28;20051;-75
2023/05/09 04:36:24;;;;;;;35.72;19.77;;;;;;;14.23;100.00;101219.88;5074006;28;20048;-74
2023/05/09 04:38:51;;;;;;;39.25;20.90;;;;;;;14.24;100.00;101211.06;5069256;28;20691;-75
2023/05/09 04:41:17;;;;;;;42.15;20.80;;;;;;;14.16;100.00;101215.25;5066557;28;20060;-75
2023/05/09 04:43:44;;;;;;;41.75;22.13;;;;;;;14.26;100.00;101219.81;5069155;28;20510;-74
2023/05/09 04:46:11;;;;;;;42.00;21.88;;;;;;;14.28;100.00;101211.00;5068466;28;20396;-75
2023/05/09 04:48:37;;;;;;;42.70;22.58;;;;;;;14.27;100.00;101210.22;5069247;28;20070;-76
2023/05/09 04:51:04;;;;;;;41.38;20.75;;;;;;;14.28;100.00;101208.22;5069101;28;20052;-77
2023/05/09 04:53:30;;;;;;;41.03;21.58;;;;;;;14.30;100.00;101203.75;5071783;28;20056;-76
2023/05/09 04:55:57;;;;;;;44.40;23.45;;;;;;;14.31;100.00;101201.72;5068839;28;20067;-76
2023/05/09 04:58:25;;;;;;;42.55;21.27;;;;;;;14.35;100.00;101202.47;5066738;28;20074;-76
2023/05/09 05:00:52;;;;;;;46.22;23.77;;;;;;;14.35;100.00;101203.25;5070109;28;20082;-76
2023/05/09 05:03:18;;;;;;;45.90;23.73;;;;;;;14.34;100.00;101192.47;5068525;28;20159;-76
2023/05/09 05:05:45;;;;;;;38.92;21.33;;;;;;;14.36;100.00;101198.44;5064785;28;20407;-76
2023/05/09 05:08:11;;;;;;;44.40;24.00;;;;;;;14.38;100.00;101188.38;5079960;28;20048;-77
2023/05/09 05:10:38;;;;;;;46.03;23.50;;;;;;;14.39;100.00;101194.78;5071660;28;20082;-76
2023/05/09 05:13:04;;;;;;;44.17;24.40;;;;;;;14.39;100.00;101186.41;5067316;28;20049;-78
2023/05/09 05:15:31;;;;;;;43.15;24.15;;;;;;;14.41;100.00;101192.31;5069575;28;20048;-76
2023/05/09 05:17:57;;;;;;;45.83;23.38;;;;;;;14.42;100.00;101191.16;5069048;28;20414;-77
2023/05/09 05:20:24;;;;;;;51.40;27.80;;;;;;;14.46;100.00;101195.47;5067153;28;20048;-75
2023/05/09 05:22:51;;;;;;;42.78;21.95;;;;;;;14.41;100.00;101192.31;5079316;28;20048;-75
2023/05/09 05:25:17;;;;;;;51.28;23.23;;;;;;;14.46;100.00;101189.06;5070092;28;20049;-75
2023/05/09 05:27:43;;;;;;;51.30;26.00;;;;;;;14.49;100.00;101188.22;5073337;28;20045;-77
2023/05/09 05:30:11;;;;;;;46.08;23.10;;;;;;;14.43;100.00;101189.94;5064506;28;20060;-75
2023/05/09 05:32:37;;;;;;;54.85;23.00;;;;;;;14.42;100.00;101191.94;5067842;28;20418;-77
2023/05/09 05:35:04;;;;;;;54.55;24.88;;;;;;;14.50;100.00;101189.78;5068114;28;20052;-76
2023/05/09 05:37:30;;;;;;;56.20;27.50;;;;;;;14.54;100.00;101191.28;5067639;28;20049;-76
2023/05/09 05:39:57;;;;;;;52.78;25.30;;;;;;;14.49;100.00;101185.41;5073600;28;20044;-76
2023/05/09 05:42:24;;;;;;;57.30;25.75;;;;;;;14.55;100.00;101184.44;5068193;28;20048;-76
2023/05/09 05:44:50;;;;;;;59.67;27.35;;;;;;;14.61;100.00;101181.91;5059845;28;20052;-76
2023/05/09 05:47:17;;;;;;;60.55;30.05;;;;;;;14.69;100.00;101178.53;5070584;28;20048;-76
2023/05/09 05:49:44;;;;;;;53.00;23.23;;;;;;;14.56;100.00;101183.22;5070038;28;20060;-77
2023/05/09 05:52:10;;;;;;;75.20;32.20;;;;;;;14.62;100.00;101180.72;5069019;28;20044;-77
2023/05/09 05:54:36;;;;;;;66.28;31.60;;;;;;;14.67;100.00;101183.78;5072618;28;20048;-72
2023/05/09 05:57:03;;;;;;;62.92;27.33;;;;;;;14.64;100.00;101181.06;5067614;28;20446;-76
2023/05/09 05:59:29;;;;;;;63.63;23.67;;;;;;;14.59;100.00;101176.00;5068315;28;20075;-78
2023/05/09 06:01:56;;;;;;;76.13;30.75;;;;;;;14.60;100.00;101172.75;5067744;28;20515;-76
2023/05/09 06:04:22;;;;;;;80.72;34.90;;;;;;;14.69;100.00;101172.16;5068583;28;20083;-77
2023/05/09 06:06:49;;;;;;;78.53;32.72;;;;;;;14.65;100.00;101175.03;5066074;28;20049;-76
2023/05/09 06:09:16;;;;;;;78.43;29.63;;;;;;;14.70;100.00;101168.94;5069262;28;20514;-76
2023/05/09 06:11:42;;;;;;;82.28;33.55;;;;;;;14.86;100.00;101170.97;5067450;28;20663;-77
2023/05/09 06:14:09;;;;;;;100.00;37.80;;;;;;;14.93;100.00;101168.00;5067153;28;20055;-76
2023/05/09 06:16:35;;;;;;;81.28;34.30;;;;;;;15.01;100.00;101158.19;5067650;28;20051;-77
2023/05/09 06:19:02;;;;;;;75.65;30.52;;;;;;;14.94;100.00;101149.97;5068506;28;20075;-75
2023/05/09 06:21:29;;;;;;;76.22;35.30;;;;;;;15.09;100.00;101147.59;5074968;28;20063;-75
2023/05/09 06:23:55;;;;;;;75.88;35.70;;;;;;;15.17;100.00;101144.19;5066445;28;20052;-76
2023/05/09 06:26:25;;;;;;;69.63;33.08;;;;;;;15.24;100.00;101138.41;5065869;28;20107;-76
2023/05/09 06:28:51;;;;;;;80.72;36.30;;;;;;;15.31;100.00;101140.22;5066665;28;20055;-77
2023/05/09 06:31:18;;;;;;;73.10;32.30;;;;;;;15.39;100.00;101139.63;5076154;28;20040;-77
2023/05/09 06:33:44;;;;;;;69.72;30.48;;;;;;;15.38;100.00;101134.47;5067833;28;20056;-76
2023/05/09 06:36:11;;;;;;;68.78;31.00;;;;;;;15.48;100.00;101125.78;5067958;28;20072;-77
2023/05/09 06:38:37;;;;;;;63.03;29.55;;;;;;;15.52;100.00;101120.88;5067700;28;20075;-76
2023/05/09 06:41:04;;;;;;;52.80;22.25;;;;;;;15.39;100.00;101131.22;5066165;28;20063;-77
2023/05/09 06:43:31;;;;;;;53.58;24.92;;;;;;;15.46;100.00;101124.66;5067903;28;20040;-75
2023/05/09 06:45:57;;;;;;;51.05;26.73;;;;;;;15.50;100.00;101120.53;5066756;28;20044;-77
2023/05/09 06:48:24;;;;;;;53.40;26.20;;;;;;;15.55;100.00;101119.97;5078524;28;20165;-79
2023/05/09 06:50:50;;;;;;;44.20;23.05;;;;;;;15.63;100.00;101117.78;5067994;28;20054;-79
2023/05/09 06:53:17;;;;;;;47.15;22.27;;;;;;;15.54;100.00;101112.81;5062634;28;20494;-79
2023/05/09 06:55:43;;;;;;;38.42;17.58;;;;;;;15.56;100.00;101112.38;5069368;28;20071;-81
2023/05/09 06:58:10;;;;;;;40.30;20.65;;;;;;;15.67;100.00;101110.84;5076546;28;20048;-80
2023/05/09 07:00:37;;;;;;;39.70;21.42;;;;;;;15.76;100.00;101108.16;5065702;28;20052;-80
2023/05/09 07:03:06;;;;;;;35.85;21.55;;;;;;;15.80;100.00;101114.47;5066926;28;20040;-81
2023/05/09 07:05:33;;;;;;;36.20;20.50;;;;;;;15.92;100.00;101098.91;5066781;28;20790;-79
2023/05/09 07:08:00;;;;;;;33.50;19.52;;;;;;;16.03;100.00;101093.78;5066108;28;20040;-79
2023/05/09 07:10:26;;;;;;;36.97;19.20;;;;;;;16.19;100.00;101088.06;5065857;28;20051;-81
2023/05/09 07:12:53;;;;;;;32.78;17.77;;;;;;;16.15;100.00;101079.78;5068535;28;20044;-78
2023/05/09 07:15:20;;;;;;;29.98;16.70;;;;;;;16.25;100.00;101073.09;5081770;28;20121;-79
2023/05/09 07:18:05;;;;;;;34.08;18.98;;;;;;;16.43;100.00;101075.31;5067888;28;20051;-78
2023/05/09 07:20:32;;;;;;;27.02;16.23;;;;;;;16.43;100.00;101066.91;5073078;28;20136;-78
2023/05/09 07:22:58;;;;;;;28.33;14.90;;;;;;;16.40;100.00;101057.38;5063851;28;20041;-79
2023/05/09 07:25:25;;;;;;;30.48;17.52;;;;;;;16.38;100.00;101056.25;5068420;28;20056;-79
2023/05/09 07:27:51;;;;;;;25.65;13.75;;;;;;;16.36;100.00;101059.50;5066933;28;20041;-79
2023/05/09 07:30:18;;;;;;;27.23;14.50;;;;;;;16.44;100.00;101058.03;5066199;28;20048;-79
2023/05/09 07:32:44;;;;;;;28.95;16.40;;;;;;;16.41;100.00;101053.31;5062752;28;20059;-79
2023/05/09 07:35:11;;;;;;;24.15;14.57;;;;;;;16.41;100.00;101053.31;5068331;28;20055;-80
2023/05/09 07:37:39;;;;;;;30.88;16.63;;;;;;;16.45;100.00;101045.59;5062904;28;20135;-74
2023/05/09 07:40:06;;;;;;;27.40;14.35;;;;;;;16.51;100.00;101046.59;5066562;28;20071;-79
2023/05/09 07:42:33;;;;;;;24.17;14.80;;;;;;;16.55;100.00;101033.25;5064560;28;20495;-80
2023/05/09 07:45:02;;;;;;;29.88;15.88;;;;;;;16.61;100.00;101039.84;5067513;28;20533;-80
2023/05/09 07:47:29;;;;;;;25.60;12.27;;;;;;;16.60;100.00;101037.47;5077251;28;20136;-79
2023/05/09 07:49:56;;;;;;;20.63;11.13;;;;;;;16.69;100.00;101035.59;5065564;28;20084;-80
2023/05/09 07:52:22;;;;;;;22.63;12.52;;;;;;;16.77;100.00;101028.47;5069148;28;20053;-79
2023/05/09 07:54:49;;;;;;;20.95;10.90;;;;;;;16.87;100.00;101024.53;5065239;28;20118;-79
2023/05/09 07:57:16;;;;;;;22.83;11.57;;;;;;;17.01;100.00;101024.03;5064574;28;20047;-78
2023/05/09 07:59:42;;;;;;;22.45;11.45;;;;;;;17.17;100.00;101014.66;5066008;28;20051;-79
2023/05/09 08:02:09;;;;;;;20.73;10.68;;;;;;;17.39;100.00;101010.63;5068926;28;20059;-79
2023/05/09 08:04:37;;;;;;;21.40;11.88;;;;;;;17.69;100.00;101008.34;5066129;28;20071;-79
2023/05/09 08:07:04;;;;;;;19.25;10.07;;;;;;;17.93;100.00;101006.59;5057557;28;20123;-79
2023/05/09 08:09:30;;;;;;;7.10;3.60;;;;;;;17.82;100.00;101003.44;5066282;28;20052;-79
2023/05/09 08:11:57;;;;;;;20.27;10.32;;;;;;;18.01;100.00;100999.47;5067339;28;20052;-79
2023/05/09 08:14:24;;;;;;;14.98;7.38;;;;;;;18.14;100.00;100983.28;5064850;28;20044;-79
2023/05/09 08:16:50;;;;;;;18.25;9.63;;;;;;;18.23;100.00;100983.31;5067852;28;20049;-78
2023/05/09 08:19:17;;;;;;;19.27;10.35;;;;;;;18.34;100.00;100987.28;5063747;28;20411;-78
2023/05/09 08:21:43;;;;;;;18.17;9.65;;;;;;;18.53;100.00;100979.66;5066600;28;20419;-77
2023/05/09 08:24:10;;;;;;;13.50;5.90;;;;;;;18.39;100.00;100977.44;5065924;28;20064;-80
2023/05/09 08:26:36;;;;;;;10.90;5.95;;;;;;;18.40;100.00;100974.13;5066527;28;20068;-78
2023/05/09 08:29:02;;;;;;;17.17;9.38;;;;;;;18.33;100.00;100973.66;5066316;28;20491;-79
2023/05/09 08:31:29;;;;;;;19.15;7.72;;;;;;;18.39;100.00;100969.75;5065374;28;20056;-78
2023/05/09 08:33:56;;;;;;;16.90;7.35;;;;;;;18.42;100.00;100970.84;5065078;28;21048;-79
2023/05/09 08:36:22;;;;;;;17.30;8.88;;;;;;;18.51;100.00;100973.72;5072413;28;20135;-77
2023/05/09 08:38:49;;;;;;;15.82;8.00;;;;;;;18.47;100.00;100970.25;5062782;28;20050;-80
2023/05/09 08:41:15;;;;;;;18.15;8.35;;;;;;;18.37;100.00;100954.59;5066973;28;20048;-77
2023/05/09 08:43:43;;;;;;;17.63;8.05;;;;;;;18.44;100.00;100960.72;5064719;28;20047;-80
2023/05/09 08:46:10;;;;;;;15.95;8.15;;;;;;;18.51;100.00;100959.63;5067210;28;20044;-79
2023/05/09 08:48:38;;;;;;;17.77;7.80;;;;;;;18.45;100.00;100950.22;5064661;28;20040;-80
2023/05/09 08:51:06;;;;;;;14.98;7.75;;;;;;;18.42;100.00;100956.78;5079538;28;20128;-79
2023/05/09 08:53:33;;;;;;;18.17;8.38;;;;;;;18.42;100.00;100948.34;5067337;28;20430;-79
2023/05/09 08:56:01;;;;;;;16.40;8.60;;;;;;;18.32;100.00;100946.75;5064973;28;20059;-79
2023/05/09 08:58:29;;;;;;;8.38;3.30;;;;;;;18.25;100.00;100935.78;5066191;28;20458;-78
2023/05/09 09:00:56;;;;;;;9.27;3.88;;;;;;;18.25;100.00;100936.59;5066122;28;20071;-78
2023/05/09 09:03:24;;;;;;;11.65;4.65;;;;;;;18.28;100.00;100940.50;5073410;28;20044;-78
2023/05/09 09:05:52;;;;;;;13.98;7.25;;;;;;;18.37;100.00;100934.88;5065507;28;20806;-78
2023/05/09 09:08:20;;;;;;;13.45;6.03;;;;;;;18.29;100.00;100939.25;5070663;28;20043;-78
2023/05/09 09:10:47;;;;;;;15.02;7.80;;;;;;;18.42;100.00;100934.25;5065163;28;20383;-78
2023/05/09 09:13:14;;;;;;;16.25;7.50;;;;;;;18.21;100.00;100930.31;5065383;28;20042;-80
2023/05/09 09:15:44;;;;;;;15.70;7.47;;;;;;;18.34;100.00;100919.72;5074873;28;20051;-78
2023/05/09 09:18:15;;;;;;;9.00;4.38;;;;;;;18.31;100.00;100917.84;5072637;28;20609;-76
2023/05/09 09:20:48;;;;;;;13.25;6.75;;;;;;;18.44;100.00;100921.31;5069658;28;20137;-79
2023/05/09 09:23:19;;;;;;;14.45;6.50;;;;;;;18.56;100.00;100919.63;5068491;28;21291;-77
2023/05/09 09:25:47;;;;;;;11.88;4.57;;;;;;;18.71;100.00;100920.53;5067247;28;20495;-76
2023/05/09 09:28:14;;;;;;;8.93;4.30;;;;;;;18.66;100.00;100921.16;5060361;28;20048;-77
2023/05/09 09:30:46;;;;;;;5.53;2.00;;;;;;;18.61;100.00;100913.34;5068502;28;20044;-77
2023/05/09 09:33:23;;;;;;;14.20;6.03;;;;;;;18.74;100.00;100906.31;5064383;28;20052;-78
2023/05/09 09:35:51;;;;;;;10.25;4.50;;;;;;;18.79;100.00;100902.09;5068123;28;20048;-76
2023/05/09 09:38:19;;;;;;;12.98;5.80;;;;;;;18.90;100.00;100899.63;5064763;28;20123;-78
2023/05/09 09:40:54;;;;;;;8.02;3.47;;;;;;;19.14;100.00;100892.84;5069143;28;20067;-80
2023/05/09 09:43:27;;;;;;;15.23;4.45;;;;;;;19.30;100.00;100886.06;5075718;28;20048;-79
2023/05/09 09:45:55;;;;;;;12.60;6.30;;;;;;;19.43;100.00;100889.50;5068826;28;20404;-77
2023/05/09 09:48:29;;;;;;;10.95;5.38;;;;;;;19.62;100.00;100883.34;5069674;28;20044;-76
2023/05/09 09:50:56;;;;;;;8.48;4.50;;;;;;;19.85;100.00;100883.88;5062538;28;20175;-77
2023/05/09 09:53:25;;;;;;;9.40;3.83;;;;;;;19.81;100.00;100874.81;5065410;28;20052;-76
2023/05/09 09:55:52;;;;;;;10.30;5.55;;;;;;;20.13;100.00;100868.38;5068626;28;20055;-78
2023/05/09 09:58:20;;;;;;;8.90;4.93;;;;;;;20.23;100.00;100862.22;5071901;28;20045;-83
2023/05/09 10:01:06;;;;;;;8.20;4.45;;;;;;;20.06;100.00;100863.88;5077034;28;20079;-78
2023/05/09 10:03:40;;;;;;;4.15;2.08;;;;;;;19.90;100.00;100849.38;5079700;28;20078;-78
2023/05/09 10:06:12;;;;;;;2.60;1.83;;;;;;;19.59;100.00;100866.59;5060213;28;20051;-77
2023/05/09 10:08:39;;;;;;;10.43;5.20;;;;;;;19.81;100.00;100852.25;5073332;28;20076;-82
2023/05/09 10:11:07;;;;;;;5.43;2.80;;;;;;;19.72;100.00;100856.66;5068328;28;20507;-79
2023/05/09 10:13:36;;;;;;;8.00;4.55;;;;;;;19.63;100.00;100842.63;5066844;28;20056;-80
2023/05/09 10:16:04;;;;;;;5.35;2.92;;;;;;;19.59;100.00;100844.84;5066695;28;20072;-76
2023/05/09 10:18:31;;;;;;;9.20;4.55;;;;;;;19.69;100.00;100843.50;5062935;28;20063;-79
2023/05/09 10:21:02;;;;;;;8.63;4.97;;;;;;;19.67;100.00;100843.22;5069704;28;20052;-80
2023/05/09 10:23:31;;;;;;;5.03;2.70;;;;;;;19.82;100.00;100837.66;5058134;28;20375;-81
2023/05/09 10:26:27;;;;;;;8.63;5.18;;;;;;;20.07;100.00;100840.03;5059209;28;20048;-78
2023/05/09 10:28:56;;;;;;;11.95;5.93;;;;;;;20.21;100.00;100830.81;5062097;28;20128;-78
2023/05/09 10:31:28;;;;;;;10.30;5.22;;;;;;;20.35;100.00;100837.84;5066402;28;20147;-78
2023/05/09 10:33:55;;;;;;;11.65;5.55;;;;;;;20.29;100.00;100825.63;5066874;28;20052;-77
2023/05/09 10:36:22;;;;;;;10.40;5.57;;;;;;;20.49;100.00;100825.78;5070861;28;20063;-81
2023/05/09 10:38:52;;;;;;;10.02;5.63;;;;;;;20.62;100.00;100818.59;5069978;28;20063;-80
2023/05/09 10:41:20;;;;;;;7.43;2.72;;;;;;;20.47;100.00;100819.84;5064415;28;20268;-78
2023/05/09 10:43:47;;;;;;;8.90;3.20;;;;;;;20.32;100.00;100804.91;5068310;28;20053;-74
2023/05/09 10:46:15;;;;;;;8.40;3.78;;;;;;;20.37;100.00;100805.03;5071633;28;20551;-77
2023/05/09 10:48:42;;;;;;;8.98;5.18;;;;;;;20.61;100.00;100797.28;5069259;28;20052;-78
2023/05/09 10:51:10;;;;;;;9.70;4.95;;;;;;;20.83;100.00;100794.84;5061563;28;20062;-77
2023/05/09 10:53:46;;;;;;;12.45;4.90;;;;;;;20.85;100.00;100792.34;5062931;28;20134;-79
2023/05/09 10:56:26;;;;;;;8.23;4.50;;;;;;;20.83;100.00;100794.84;5065260;28;20415;-78
2023/05/09 10:58:53;;;;;;;10.00;4.70;;;;;;;20.87;100.00;100786.19;5062273;28;20105;-77
2023/05/09 11:01:33;;;;;;;11.15;4.90;;;;;;;20.79;100.00;100773.72;5063555;28;20499;-79
2023/05/09 11:04:15;;;;;;;10.45;5.40;;;;;;;20.89;100.00;100773.13;5057210;28;20056;-81
2023/05/09 11:06:45;;;;;;;8.80;5.20;;;;;;;20.91;100.00;100776.25;5054618;28;20044;-79
2023/05/09 11:09:34;;;;;;;8.30;4.07;;;;;;;20.78;100.00;100769.31;5060259;28;20128;-78